createdAt,value
2018-06-03T00:00:34.763Z,1012.70
2018-06-03T00:01:34.960Z,1012.69
2018-06-03T00:02:34.715Z,1012.71
2018-06-03T00:03:34.706Z,1012.70
2018-06-03T00:04:34.711Z,1012.68
2018-06-03T00:05:34.677Z,1012.73
2018-06-03T00:06:34.680Z,1012.73
2018-06-03T00:07:34.618Z,1012.75
2018-06-03T00:08:34.601Z,1012.75
2018-06-03T00:09:34.583Z,1012.75
2018-06-03T00:10:34.613Z,1012.69
2018-06-03T00:11:34.570Z,1012.70
2018-06-03T00:12:34.573Z,1012.73
2018-06-03T00:13:34.542Z,1012.72
2018-06-03T00:14:34.513Z,1012.67
2018-06-03T00:15:34.515Z,1012.65
2018-06-03T00:16:34.482Z,1012.64
2018-06-03T00:17:34.472Z,1012.68
2018-06-03T00:18:34.442Z,1012.64
2018-06-03T00:19:34.423Z,1012.63
2018-06-03T00:20:34.412Z,1012.62
2018-06-03T00:21:34.397Z,1012.63
2018-06-03T00:22:34.423Z,1012.65
2018-06-03T00:23:34.406Z,1012.63
2018-06-03T00:24:34.364Z,1012.61
2018-06-03T00:25:34.366Z,1012.59
2018-06-03T00:26:34.316Z,1012.59
2018-06-03T00:27:34.296Z,1012.57
2018-06-03T00:28:34.280Z,1012.61
2018-06-03T00:29:34.286Z,1012.60
2018-06-03T00:30:34.258Z,1012.62
2018-06-03T00:31:34.263Z,1012.60
2018-06-03T00:32:34.230Z,1012.59
2018-06-03T00:33:34.225Z,1012.61
2018-06-03T00:34:34.209Z,1012.58
2018-06-03T00:35:34.178Z,1012.61
2018-06-03T00:36:34.151Z,1012.63
2018-06-03T00:37:34.134Z,1012.59
2018-06-03T00:38:34.120Z,1012.65
2018-06-03T00:39:34.125Z,1012.61
2018-06-03T00:40:34.125Z,1012.64
2018-06-03T00:41:34.104Z,1012.63
2018-06-03T00:42:34.072Z,1012.63
2018-06-03T00:43:34.053Z,1012.62
2018-06-03T00:44:34.033Z,1012.59
2018-06-03T00:45:34.011Z,1012.60
2018-06-03T00:46:34.001Z,1012.63
2018-06-03T00:47:33.973Z,1012.59
2018-06-03T00:48:33.958Z,1012.63
2018-06-03T00:49:33.978Z,1012.64
2018-06-03T00:50:33.938Z,1012.62
2018-06-03T00:51:33.919Z,1012.65
2018-06-03T00:52:33.905Z,1012.66
2018-06-03T00:53:33.950Z,1012.68
2018-06-03T00:54:33.891Z,1012.67
2018-06-03T00:55:33.877Z,1012.66
2018-06-03T00:56:33.829Z,1012.70
2018-06-03T00:57:33.809Z,1012.72
2018-06-03T00:58:33.796Z,1012.73
2018-06-03T00:59:33.805Z,1012.68
2018-06-03T01:00:33.816Z,1012.71
2018-06-03T01:01:33.776Z,1012.72
2018-06-03T01:02:33.739Z,1012.72
2018-06-03T01:03:33.725Z,1012.72
2018-06-03T01:04:33.754Z,1012.71
2018-06-03T01:05:33.709Z,1012.70
2018-06-03T01:06:33.689Z,1012.70
2018-06-03T01:07:33.652Z,1012.71
2018-06-03T01:08:33.640Z,1012.65
2018-06-03T01:09:33.622Z,1012.70
2018-06-03T01:10:33.622Z,1012.70
2018-06-03T01:11:33.631Z,1012.70
2018-06-03T01:12:33.630Z,1012.66
2018-06-03T01:13:33.611Z,1012.68
2018-06-03T01:14:33.560Z,1012.69
2018-06-03T01:15:33.548Z,1012.70
2018-06-03T01:16:33.504Z,1012.67
2018-06-03T01:17:33.485Z,1012.63
2018-06-03T01:18:33.473Z,1012.66
2018-06-03T01:19:33.478Z,1012.66
2018-06-03T01:20:33.472Z,1012.65
2018-06-03T01:21:33.433Z,1012.67
2018-06-03T01:22:33.417Z,1012.68
2018-06-03T01:23:33.442Z,1012.66
2018-06-03T01:24:33.384Z,1012.67
2018-06-03T01:25:33.364Z,1012.67
2018-06-03T01:26:33.361Z,1012.64
2018-06-03T01:27:33.325Z,1012.66
2018-06-03T01:28:33.309Z,1012.69
2018-06-03T01:29:33.296Z,1012.65
2018-06-03T01:30:33.320Z,1012.69
2018-06-03T01:31:33.318Z,1012.68
2018-06-03T01:32:33.264Z,1012.67
2018-06-03T01:33:33.250Z,1012.66
2018-06-03T01:34:33.228Z,1012.67
2018-06-03T01:35:33.219Z,1012.64
2018-06-03T01:36:33.183Z,1012.61
2018-06-03T01:37:33.167Z,1012.60
2018-06-03T01:38:33.151Z,1012.61
2018-06-03T01:39:33.166Z,1012.60
2018-06-03T01:40:33.140Z,1012.60
2018-06-03T01:41:33.128Z,1012.58
2018-06-03T01:42:33.116Z,1012.57
2018-06-03T01:43:33.119Z,1012.59
2018-06-03T01:44:33.072Z,1012.58
2018-06-03T01:45:33.042Z,1012.56
2018-06-03T01:46:33.074Z,1012.58
2018-06-03T01:47:33.025Z,1012.58
2018-06-03T01:48:33.000Z,1012.55
2018-06-03T01:49:32.991Z,1012.52
2018-06-03T01:50:32.969Z,1012.50
2018-06-03T01:51:32.958Z,1012.50
2018-06-03T01:52:32.945Z,1012.47
2018-06-03T01:53:32.926Z,1012.50
2018-06-03T01:54:32.910Z,1012.47
2018-06-03T01:55:32.892Z,1012.47
2018-06-03T01:56:32.894Z,1012.46
2018-06-03T01:57:32.846Z,1012.45
2018-06-03T01:58:32.830Z,1012.45
2018-06-03T01:59:32.819Z,1012.48
2018-06-03T02:00:32.806Z,1012.50
2018-06-03T02:01:32.805Z,1012.46
2018-06-03T02:02:32.775Z,1012.48
2018-06-03T02:03:32.758Z,1012.45
2018-06-03T02:04:32.748Z,1012.46
2018-06-03T02:05:32.726Z,1012.40
2018-06-03T02:06:32.739Z,1012.41
2018-06-03T02:07:32.710Z,1012.41
2018-06-03T02:08:32.683Z,1012.44
2018-06-03T02:09:32.664Z,1012.45
2018-06-03T02:10:32.661Z,1012.43
2018-06-03T02:11:32.640Z,1012.44
2018-06-03T02:12:32.669Z,1012.44
2018-06-03T02:13:32.608Z,1012.42
2018-06-03T02:14:32.837Z,1012.44
2018-06-03T02:15:32.592Z,1012.39
2018-06-03T02:16:32.570Z,1012.38
2018-06-03T02:17:32.530Z,1012.37
2018-06-03T02:18:32.513Z,1012.38
2018-06-03T02:19:32.500Z,1012.35
2018-06-03T02:20:32.491Z,1012.36
2018-06-03T02:21:32.518Z,1012.33
2018-06-03T02:22:32.483Z,1012.35
2018-06-03T02:23:32.460Z,1012.32
2018-06-03T02:24:32.462Z,1012.34
2018-06-03T02:25:32.441Z,1012.32
2018-06-03T02:26:32.391Z,1012.33
2018-06-03T02:27:32.372Z,1012.30
2018-06-03T02:28:32.396Z,1012.30
2018-06-03T02:29:32.344Z,1012.33
2018-06-03T02:30:32.354Z,1012.30
2018-06-03T02:31:32.360Z,1012.31
2018-06-03T02:32:32.538Z,1012.26
2018-06-03T02:33:32.304Z,1012.27
2018-06-03T02:34:32.305Z,1012.27
2018-06-03T02:35:32.278Z,1012.25
2018-06-03T02:36:32.230Z,1012.28
2018-06-03T02:37:32.237Z,1012.29
2018-06-03T02:38:32.211Z,1012.27
2018-06-03T02:39:32.213Z,1012.29
2018-06-03T02:40:32.178Z,1012.27
2018-06-03T02:41:32.167Z,1012.25
2018-06-03T02:42:32.171Z,1012.27
2018-06-03T02:43:32.168Z,1012.28
2018-06-03T02:44:32.148Z,1012.26
2018-06-03T02:45:32.118Z,1012.27
2018-06-03T02:46:32.090Z,1012.26
2018-06-03T02:47:32.080Z,1012.27
2018-06-03T02:48:32.050Z,1012.23
2018-06-03T02:49:32.049Z,1012.24
2018-06-03T02:50:32.015Z,1012.24
2018-06-03T02:51:32.039Z,1012.25
2018-06-03T02:52:31.992Z,1012.23
2018-06-03T02:53:31.963Z,1012.26
2018-06-03T02:54:31.962Z,1012.24
2018-06-03T02:55:31.934Z,1012.27
2018-06-03T02:56:31.911Z,1012.27
2018-06-03T02:57:31.897Z,1012.27
2018-06-03T02:58:31.876Z,1012.28
2018-06-03T02:59:31.903Z,1012.26
2018-06-03T03:00:31.870Z,1012.26
2018-06-03T03:01:31.852Z,1012.26
2018-06-03T03:02:31.860Z,1012.23
2018-06-03T03:03:31.818Z,1012.26
2018-06-03T03:04:31.805Z,1012.28
2018-06-03T03:05:31.778Z,1012.24
2018-06-03T03:06:31.759Z,1012.25
2018-06-03T03:07:31.732Z,1012.27
2018-06-03T03:08:31.726Z,1012.27
2018-06-03T03:09:31.756Z,1012.28
2018-06-03T03:10:31.714Z,1012.31
2018-06-03T03:11:31.693Z,1012.27
2018-06-03T03:12:31.703Z,1012.31
2018-06-03T03:13:31.887Z,1012.29
2018-06-03T03:14:31.670Z,1012.32
2018-06-03T03:15:31.644Z,1012.32
2018-06-03T03:16:31.590Z,1012.33
2018-06-03T03:17:31.573Z,1012.36
2018-06-03T03:18:31.564Z,1012.32
2018-06-03T03:19:31.572Z,1012.33
2018-06-03T03:20:31.551Z,1012.35
2018-06-03T03:21:31.516Z,1012.38
2018-06-03T03:22:31.511Z,1012.34
2018-06-03T03:23:31.511Z,1012.36
2018-06-03T03:24:31.515Z,1012.35
2018-06-03T03:25:31.477Z,1012.41
2018-06-03T03:26:31.434Z,1012.40
2018-06-03T03:27:31.421Z,1012.38
2018-06-03T03:28:31.414Z,1012.38
2018-06-03T03:29:31.401Z,1012.35
2018-06-03T03:30:31.378Z,1012.41
2018-06-03T03:31:31.359Z,1012.39
2018-06-03T03:32:31.560Z,1012.40
2018-06-03T03:33:31.342Z,1012.35
2018-06-03T03:34:31.316Z,1012.38
2018-06-03T03:35:31.306Z,1012.38
2018-06-03T03:36:31.299Z,1012.34
2018-06-03T03:37:31.499Z,1012.36
2018-06-03T03:38:31.245Z,1012.34
2018-06-03T03:39:31.246Z,1012.34
2018-06-03T03:40:31.225Z,1012.37
2018-06-03T03:41:31.223Z,1012.34
2018-06-03T03:42:31.205Z,1012.33
2018-06-03T03:43:31.177Z,1012.33
2018-06-03T03:44:31.164Z,1012.27
2018-06-03T03:45:31.158Z,1012.32
2018-06-03T03:46:31.113Z,1012.29
2018-06-03T03:47:31.096Z,1012.30
2018-06-03T03:48:31.101Z,1012.33
2018-06-03T03:49:31.104Z,1012.33
2018-06-03T03:50:31.083Z,1012.34
2018-06-03T03:51:31.054Z,1012.35
2018-06-03T03:52:31.037Z,1012.35
2018-06-03T03:53:31.023Z,1012.41
2018-06-03T03:54:31.015Z,1012.40
2018-06-03T03:55:30.987Z,1012.36
2018-06-03T03:56:30.999Z,1012.37
2018-06-03T03:57:30.955Z,1012.40
2018-06-03T03:58:30.939Z,1012.39
2018-06-03T03:59:30.918Z,1012.40
2018-06-03T04:00:30.945Z,1012.41
2018-06-03T04:01:30.897Z,1012.36
2018-06-03T04:02:30.897Z,1012.38
2018-06-03T04:03:30.863Z,1012.36
2018-06-03T04:04:30.867Z,1012.41
2018-06-03T04:05:30.841Z,1012.38
2018-06-03T04:06:30.791Z,1012.38
2018-06-03T04:07:30.775Z,1012.39
2018-06-03T04:08:30.770Z,1012.38
2018-06-03T04:09:30.761Z,1012.37
2018-06-03T04:10:30.732Z,1012.36
2018-06-03T04:11:30.732Z,1012.36
2018-06-03T04:12:30.704Z,1012.37
2018-06-03T04:13:30.707Z,1012.37
2018-06-03T04:14:30.695Z,1012.38
2018-06-03T04:15:30.661Z,1012.38
2018-06-03T04:16:30.657Z,1012.35
2018-06-03T04:17:30.650Z,1012.32
2018-06-03T04:18:30.603Z,1012.37
2018-06-03T04:19:30.628Z,1012.37
2018-06-03T04:20:30.597Z,1012.41
2018-06-03T04:21:30.595Z,1012.39
2018-06-03T04:22:30.571Z,1012.37
2018-06-03T04:23:30.543Z,1012.38
2018-06-03T04:24:30.520Z,1012.41
2018-06-03T04:25:30.512Z,1012.40
2018-06-03T04:26:30.488Z,1012.39
2018-06-03T04:27:30.458Z,1012.41
2018-06-03T04:28:30.441Z,1012.46
2018-06-03T04:29:30.482Z,1012.46
2018-06-03T04:30:30.516Z,1012.43
2018-06-03T04:31:30.453Z,1012.45
2018-06-03T04:32:30.393Z,1012.47
2018-06-03T04:33:30.594Z,1012.45
2018-06-03T04:34:30.361Z,1012.46
2018-06-03T04:35:30.342Z,1012.46
2018-06-03T04:36:30.365Z,1012.48
2018-06-03T04:37:30.345Z,1012.48
2018-06-03T04:38:30.334Z,1012.48
2018-06-03T04:39:30.362Z,1012.47
2018-06-03T04:40:30.349Z,1012.46
2018-06-03T04:41:30.306Z,1012.52
2018-06-03T04:42:30.256Z,1012.50
2018-06-03T04:43:30.247Z,1012.49
2018-06-03T04:44:30.238Z,1012.50
2018-06-03T04:45:30.192Z,1012.56
2018-06-03T04:46:30.174Z,1012.53
2018-06-03T04:47:30.180Z,1012.55
2018-06-03T04:48:30.152Z,1012.54
2018-06-03T04:49:30.127Z,1012.56
2018-06-03T04:50:30.124Z,1012.61
2018-06-03T04:51:30.100Z,1012.54
2018-06-03T04:52:30.105Z,1012.58
2018-06-03T04:53:30.083Z,1012.57
2018-06-03T04:54:30.065Z,1012.56
2018-06-03T04:55:30.040Z,1012.57
2018-06-03T04:56:30.003Z,1012.55
2018-06-03T04:57:29.983Z,1012.56
2018-06-03T04:58:29.969Z,1012.61
2018-06-03T04:59:30.985Z,1012.65
2018-06-03T05:00:29.968Z,1012.62
2018-06-03T05:01:29.959Z,1012.67
2018-06-03T05:02:30.020Z,1012.68
2018-06-03T05:03:29.972Z,1012.69
2018-06-03T05:04:31.506Z,1012.70
2018-06-03T05:05:30.138Z,1012.70
2018-06-03T05:06:29.873Z,1012.73
2018-06-03T05:08:29.881Z,1012.72
2018-06-03T05:09:29.821Z,1012.72
2018-06-03T05:10:30.447Z,1012.71
2018-06-03T05:11:29.824Z,1012.70
2018-06-03T05:12:29.752Z,1012.73
2018-06-03T05:13:29.737Z,1012.76
2018-06-03T05:14:29.776Z,1012.73
2018-06-03T05:15:29.712Z,1012.75
2018-06-03T05:16:29.730Z,1012.74
2018-06-03T05:17:29.712Z,1012.74
2018-06-03T05:18:29.716Z,1012.78
2018-06-03T05:19:29.703Z,1012.74
2018-06-03T05:20:29.673Z,1012.76
2018-06-03T05:21:29.662Z,1012.75
2018-06-03T05:22:30.421Z,1012.73
2018-06-03T05:23:29.624Z,1012.72
2018-06-03T05:24:29.643Z,1012.74
2018-06-03T05:25:29.585Z,1012.75
2018-06-03T05:26:29.576Z,1012.69
2018-06-03T05:27:29.592Z,1012.74
2018-06-03T05:28:30.476Z,1012.74
2018-06-03T05:29:29.681Z,1012.76
2018-06-03T05:30:29.521Z,1012.79
2018-06-03T05:31:29.482Z,1012.74
2018-06-03T05:32:29.517Z,1012.77
2018-06-03T05:33:29.505Z,1012.78
2018-06-03T05:34:29.971Z,1012.78
2018-06-03T05:35:29.425Z,1012.76
2018-06-03T05:36:29.999Z,1012.73
2018-06-03T05:37:31.240Z,1012.78
2018-06-03T05:38:29.382Z,1012.77
2018-06-03T05:39:29.344Z,1012.79
2018-06-03T05:40:29.352Z,1012.77
2018-06-03T05:41:29.323Z,1012.80
2018-06-03T05:42:29.329Z,1012.79
2018-06-03T05:43:29.271Z,1012.75
2018-06-03T05:44:29.265Z,1012.76
2018-06-03T05:45:29.290Z,1012.80
2018-06-03T05:46:29.223Z,1012.83
2018-06-03T05:47:29.223Z,1012.81
2018-06-03T05:48:29.215Z,1012.80
2018-06-03T05:49:29.272Z,1012.83
2018-06-03T05:50:29.201Z,1012.80
2018-06-03T05:51:29.949Z,1012.82
2018-06-03T05:52:29.132Z,1012.84
2018-06-03T05:53:29.297Z,1012.84
2018-06-03T05:54:29.099Z,1012.85
2018-06-03T05:55:29.128Z,1012.87
2018-06-03T05:56:29.128Z,1012.88
2018-06-03T05:57:29.950Z,1012.92
2018-06-03T05:58:29.096Z,1012.92
2018-06-03T05:59:29.077Z,1012.94
2018-06-03T06:00:29.964Z,1012.94
2018-06-03T06:01:29.051Z,1012.92
2018-06-03T06:02:29.019Z,1012.95
2018-06-03T06:03:29.017Z,1012.94
2018-06-03T06:04:28.988Z,1012.96
2018-06-03T06:05:28.983Z,1012.95
2018-06-03T06:06:28.942Z,1012.95
2018-06-03T06:07:28.942Z,1013.01
2018-06-03T06:08:29.643Z,1013.03
2018-06-03T06:09:28.916Z,1013.05
2018-06-03T06:10:28.936Z,1013.07
2018-06-03T06:11:28.889Z,1013.02
2018-06-03T06:12:28.831Z,1013.03
2018-06-03T06:13:29.463Z,1013.08
2018-06-03T06:14:28.792Z,1013.04
2018-06-03T06:15:28.775Z,1013.01
2018-06-03T06:16:28.793Z,1013.02
2018-06-03T06:17:28.745Z,1013.03
2018-06-03T06:18:28.730Z,1013.02
2018-06-03T06:19:28.723Z,1013.08
2018-06-03T06:20:28.699Z,1013.06
2018-06-03T06:21:28.690Z,1013.04
2018-06-03T06:22:28.720Z,1013.05
2018-06-03T06:23:28.653Z,1013.08
2018-06-03T06:24:29.646Z,1013.08
2018-06-03T06:25:28.664Z,1013.10
2018-06-03T06:26:28.665Z,1013.08
2018-06-03T06:27:28.651Z,1013.09
2018-06-03T06:28:31.516Z,1013.12
2018-06-03T06:29:28.628Z,1013.11
2018-06-03T06:30:28.544Z,1013.12
2018-06-03T06:31:28.526Z,1013.13
2018-06-03T06:32:28.543Z,1013.13
2018-06-03T06:33:28.497Z,1013.13
2018-06-03T06:34:28.484Z,1013.14
2018-06-03T06:35:28.478Z,1013.16
2018-06-03T06:36:28.478Z,1013.17
2018-06-03T06:37:28.959Z,1013.14
2018-06-03T06:38:28.833Z,1013.09
2018-06-03T06:39:28.409Z,1013.11
2018-06-03T06:40:28.395Z,1013.08
2018-06-03T06:41:28.379Z,1013.15
2018-06-03T06:42:28.363Z,1013.14
2018-06-03T06:43:28.975Z,1013.15
2018-06-03T06:44:28.335Z,1013.16
2018-06-03T06:45:28.320Z,1013.16
2018-06-03T06:46:28.306Z,1013.22
2018-06-03T06:47:28.290Z,1013.27
2018-06-03T06:48:28.277Z,1013.26
2018-06-03T06:49:28.261Z,1013.26
2018-06-03T06:50:28.249Z,1013.25
2018-06-03T06:51:28.230Z,1013.26
2018-06-03T06:52:28.216Z,1013.30
2018-06-03T06:53:28.201Z,1013.30
2018-06-03T06:54:28.197Z,1013.31
2018-06-03T06:55:28.182Z,1013.32
2018-06-03T06:56:28.159Z,1013.33
2018-06-03T06:57:28.142Z,1013.32
2018-06-03T06:58:28.132Z,1013.28
2018-06-03T06:59:28.113Z,1013.30
2018-06-03T07:00:28.103Z,1013.25
2018-06-03T07:01:28.083Z,1013.31
2018-06-03T07:02:28.069Z,1013.34
2018-06-03T07:03:28.056Z,1013.37
2018-06-03T07:04:28.040Z,1013.35
2018-06-03T07:05:28.024Z,1013.37
2018-06-03T07:06:28.028Z,1013.37
2018-06-03T07:07:27.995Z,1013.36
2018-06-03T07:08:27.982Z,1013.36
2018-06-03T07:09:27.971Z,1013.32
2018-06-03T07:10:27.952Z,1013.39
2018-06-03T07:11:27.969Z,1013.35
2018-06-03T07:12:27.921Z,1013.35
2018-06-03T07:13:27.907Z,1013.35
2018-06-03T07:14:27.998Z,1013.35
2018-06-03T07:15:27.896Z,1013.34
2018-06-03T07:16:27.863Z,1013.36
2018-06-03T07:17:27.846Z,1013.35
2018-06-03T07:18:27.876Z,1013.40
2018-06-03T07:19:27.817Z,1013.39
2018-06-03T07:20:27.809Z,1013.35
2018-06-03T07:21:27.792Z,1013.34
2018-06-03T07:22:27.775Z,1013.34
2018-06-03T07:23:27.762Z,1013.36
2018-06-03T07:24:27.807Z,1013.35
2018-06-03T07:25:27.934Z,1013.38
2018-06-03T07:26:27.746Z,1013.38
2018-06-03T07:27:27.702Z,1013.36
2018-06-03T07:28:27.686Z,1013.30
2018-06-03T07:29:27.673Z,1013.34
2018-06-03T07:30:27.656Z,1013.32
2018-06-03T07:31:27.668Z,1013.35
2018-06-03T07:32:27.656Z,1013.34
2018-06-03T07:33:27.613Z,1013.33
2018-06-03T07:34:27.598Z,1013.30
2018-06-03T07:35:27.586Z,1013.36
2018-06-03T07:36:27.571Z,1013.37
2018-06-03T07:37:27.562Z,1013.36
2018-06-03T07:38:27.587Z,1013.33
2018-06-03T07:39:27.525Z,1013.38
2018-06-03T07:40:27.510Z,1013.40
2018-06-03T07:41:27.494Z,1013.37
2018-06-03T07:42:27.492Z,1013.38
2018-06-03T07:43:27.467Z,1013.38
2018-06-03T07:44:27.452Z,1013.39
2018-06-03T07:45:27.438Z,1013.37
2018-06-03T07:46:27.422Z,1013.41
2018-06-03T07:47:27.408Z,1013.37
2018-06-03T07:48:27.394Z,1013.39
2018-06-03T07:49:27.377Z,1013.39
2018-06-03T07:50:27.423Z,1013.41
2018-06-03T07:51:27.348Z,1013.39
2018-06-03T07:52:27.336Z,1013.38
2018-06-03T07:53:27.324Z,1013.35
2018-06-03T07:54:27.304Z,1013.37
2018-06-03T07:55:27.289Z,1013.34
2018-06-03T07:56:27.277Z,1013.39
2018-06-03T07:57:27.263Z,1013.36
2018-06-03T07:58:27.242Z,1013.35
2018-06-03T07:59:27.228Z,1013.35
2018-06-03T08:00:27.217Z,1013.31
2018-06-03T08:01:27.197Z,1013.34
2018-06-03T08:02:27.182Z,1013.32
2018-06-03T08:03:27.169Z,1013.31
2018-06-03T08:04:27.208Z,1013.35
2018-06-03T08:05:27.196Z,1013.33
2018-06-03T08:06:27.165Z,1013.33
2018-06-03T08:07:27.110Z,1013.35
2018-06-03T08:08:27.095Z,1013.35
2018-06-03T08:09:27.104Z,1013.31
2018-06-03T08:10:27.063Z,1013.36
2018-06-03T08:11:27.050Z,1013.36
2018-06-03T08:12:27.037Z,1013.37
2018-06-03T08:13:27.020Z,1013.35
2018-06-03T08:14:27.004Z,1013.34
2018-06-03T08:15:26.990Z,1013.36
2018-06-03T08:16:26.975Z,1013.35
2018-06-03T08:17:26.963Z,1013.37
2018-06-03T08:18:26.946Z,1013.37
2018-06-03T08:19:26.930Z,1013.38
2018-06-03T08:20:26.945Z,1013.36
2018-06-03T08:21:26.901Z,1013.40
2018-06-03T08:22:26.890Z,1013.37
2018-06-03T08:23:26.889Z,1013.37
2018-06-03T08:24:26.902Z,1013.36
2018-06-03T08:25:26.858Z,1013.36
2018-06-03T08:26:26.826Z,1013.37
2018-06-03T08:27:26.813Z,1013.32
2018-06-03T08:28:26.799Z,1013.36
2018-06-03T08:29:26.785Z,1013.36
2018-06-03T08:30:26.795Z,1013.36
2018-06-03T08:31:26.752Z,1013.37
2018-06-03T08:32:26.737Z,1013.36
2018-06-03T08:33:26.719Z,1013.34
2018-06-03T08:34:26.705Z,1013.37
2018-06-03T08:35:26.690Z,1013.37
2018-06-03T08:36:26.676Z,1013.33
2018-06-03T08:37:26.662Z,1013.34
2018-06-03T08:38:26.644Z,1013.33
2018-06-03T08:39:26.629Z,1013.35
2018-06-03T08:40:26.687Z,1013.37
2018-06-03T08:41:26.598Z,1013.40
2018-06-03T08:42:26.586Z,1013.40
2018-06-03T08:43:26.571Z,1013.37
2018-06-03T08:44:26.559Z,1013.38
2018-06-03T08:45:26.539Z,1013.41
2018-06-03T08:46:26.524Z,1013.41
2018-06-03T08:47:26.510Z,1013.43
2018-06-03T08:48:26.495Z,1013.38
2018-06-03T08:49:26.479Z,1013.41
2018-06-03T08:50:26.504Z,1013.42
2018-06-03T08:51:26.448Z,1013.41
2018-06-03T08:52:26.513Z,1013.40
2018-06-03T08:53:26.440Z,1013.43
2018-06-03T08:54:26.438Z,1013.41
2018-06-03T08:55:26.465Z,1013.38
2018-06-03T08:56:26.397Z,1013.41
2018-06-03T08:57:26.375Z,1013.43
2018-06-03T08:58:26.345Z,1013.41
2018-06-03T08:59:26.402Z,1013.45
2018-06-03T09:00:26.326Z,1013.48
2018-06-03T09:01:26.297Z,1013.46
2018-06-03T09:02:26.284Z,1013.45
2018-06-03T09:03:26.309Z,1013.45
2018-06-03T09:04:26.257Z,1013.43
2018-06-03T09:05:26.237Z,1013.47
2018-06-03T09:06:26.223Z,1013.49
2018-06-03T09:07:26.214Z,1013.47
2018-06-03T09:08:26.193Z,1013.48
2018-06-03T09:09:26.176Z,1013.48
2018-06-03T09:10:26.164Z,1013.48
2018-06-03T09:11:26.147Z,1013.49
2018-06-03T09:12:26.132Z,1013.48
2018-06-03T09:13:26.115Z,1013.46
2018-06-03T09:14:26.101Z,1013.45
2018-06-03T09:15:26.085Z,1013.49
2018-06-03T09:16:26.072Z,1013.39
2018-06-03T09:17:26.057Z,1013.41
2018-06-03T09:18:26.042Z,1013.41
2018-06-03T09:19:26.028Z,1013.45
2018-06-03T09:20:26.013Z,1013.46
2018-06-03T09:21:25.996Z,1013.42
2018-06-03T09:22:25.979Z,1013.41
2018-06-03T09:23:25.970Z,1013.43
2018-06-03T09:24:25.953Z,1013.43
2018-06-03T09:25:26.012Z,1013.46
2018-06-03T09:26:25.921Z,1013.47
2018-06-03T09:27:25.937Z,1013.48
2018-06-03T09:28:25.894Z,1013.43
2018-06-03T09:29:25.879Z,1013.43
2018-06-03T09:30:25.879Z,1013.40
2018-06-03T09:31:25.870Z,1013.41
2018-06-03T09:32:25.852Z,1013.41
2018-06-03T09:33:25.873Z,1013.41
2018-06-03T09:34:25.879Z,1013.39
2018-06-03T09:35:25.786Z,1013.34
2018-06-03T09:36:25.774Z,1013.32
2018-06-03T09:37:25.754Z,1013.31
2018-06-03T09:38:25.796Z,1013.31
2018-06-03T09:39:25.766Z,1013.33
2018-06-03T09:40:25.748Z,1013.34
2018-06-03T09:41:25.697Z,1013.33
2018-06-03T09:42:25.683Z,1013.31
2018-06-03T09:43:25.667Z,1013.34
2018-06-03T09:44:25.690Z,1013.33
2018-06-03T09:45:25.652Z,1013.34
2018-06-03T09:46:25.647Z,1013.33
2018-06-03T09:47:25.610Z,1013.34
2018-06-03T09:48:25.641Z,1013.33
2018-06-03T09:49:25.586Z,1013.36
2018-06-03T09:50:25.568Z,1013.36
2018-06-03T09:51:25.555Z,1013.33
2018-06-03T09:52:25.548Z,1013.35
2018-06-03T09:53:25.525Z,1013.32
2018-06-03T09:54:25.510Z,1013.30
2018-06-03T09:55:25.503Z,1013.25
2018-06-03T09:56:25.483Z,1013.22
2018-06-03T09:57:25.468Z,1013.28
2018-06-03T09:58:25.454Z,1013.25
2018-06-03T09:59:25.440Z,1013.22
2018-06-03T10:00:25.485Z,1013.25
2018-06-03T10:01:25.410Z,1013.20
2018-06-03T10:02:25.398Z,1013.17
2018-06-03T10:03:25.386Z,1013.17
2018-06-03T10:04:25.372Z,1013.20
2018-06-03T10:05:25.358Z,1013.18
2018-06-03T10:06:25.345Z,1013.19
2018-06-03T10:07:25.331Z,1013.21
2018-06-03T10:08:25.316Z,1013.18
2018-06-03T10:09:25.302Z,1013.20
2018-06-03T10:10:25.294Z,1013.17
2018-06-03T10:11:25.338Z,1013.22
2018-06-03T10:12:25.264Z,1013.18
2018-06-03T10:13:25.245Z,1013.18
2018-06-03T10:14:25.233Z,1013.24
2018-06-03T10:15:25.227Z,1013.19
2018-06-03T10:16:25.276Z,1013.12
2018-06-03T10:17:25.237Z,1013.14
2018-06-03T10:18:25.199Z,1013.11
2018-06-03T10:19:25.164Z,1013.16
2018-06-03T10:20:25.151Z,1013.12
2018-06-03T10:21:25.186Z,1013.17
2018-06-03T10:22:25.175Z,1013.09
2018-06-03T10:23:25.110Z,1013.16
2018-06-03T10:24:25.095Z,1013.11
2018-06-03T10:25:25.081Z,1013.12
2018-06-03T10:26:25.067Z,1013.18
2018-06-03T10:27:25.057Z,1013.18
2018-06-03T10:28:25.058Z,1013.19
2018-06-03T10:29:25.063Z,1013.26
2018-06-03T10:30:25.048Z,1013.27
2018-06-03T10:31:25.011Z,1013.19
2018-06-03T10:32:25.026Z,1013.16
2018-06-03T10:33:25.541Z,1013.26
2018-06-03T10:34:25.558Z,1013.23
2018-06-03T10:35:24.957Z,1013.30
2018-06-03T10:36:24.946Z,1013.55
2018-06-03T10:37:24.986Z,1013.35
2018-06-03T10:38:25.570Z,1013.38
2018-06-03T10:39:24.940Z,1013.30
2018-06-03T10:40:24.905Z,1013.24
2018-06-03T10:41:24.884Z,1013.17
2018-06-03T10:42:24.876Z,1013.26
2018-06-03T10:43:24.908Z,1013.30
2018-06-03T10:44:24.844Z,1013.54
2018-06-03T10:45:24.879Z,1013.25
2018-06-03T10:46:24.831Z,1013.22
2018-06-03T10:47:24.826Z,1013.85
2018-06-03T10:48:24.821Z,1013.57
2018-06-03T10:49:24.808Z,1014.43
2018-06-03T10:50:24.758Z,1013.77
2018-06-03T10:51:24.757Z,1013.60
2018-06-03T10:52:24.761Z,1014.05
2018-06-03T10:53:24.753Z,1014.15
2018-06-03T10:54:24.829Z,1014.05
2018-06-03T10:55:24.707Z,1014.46
2018-06-03T10:56:24.700Z,1014.47
2018-06-03T10:57:24.667Z,1014.37
2018-06-03T10:58:24.690Z,1014.34
2018-06-03T10:59:24.679Z,1014.25
2018-06-03T11:00:24.661Z,1014.24
2018-06-03T11:01:24.642Z,1014.26
2018-06-03T11:02:24.624Z,1014.21
2018-06-03T11:03:24.612Z,1014.15
2018-06-03T11:04:24.604Z,1014.14
2018-06-03T11:05:24.597Z,1014.05
2018-06-03T11:06:24.592Z,1014.11
2018-06-03T11:07:24.584Z,1014.06
2018-06-03T11:08:24.578Z,1014.11
2018-06-03T11:09:24.571Z,1014.06
2018-06-03T11:10:24.566Z,1014.01
2018-06-03T11:11:24.561Z,1013.97
2018-06-03T11:12:24.556Z,1013.92
2018-06-03T11:13:24.550Z,1013.92
2018-06-03T11:14:24.547Z,1013.87
2018-06-03T11:15:24.543Z,1013.85
2018-06-03T11:16:24.545Z,1013.87
2018-06-03T11:17:24.535Z,1013.86
2018-06-03T11:18:24.529Z,1013.81
2018-06-03T11:19:24.525Z,1013.80
2018-06-03T11:20:24.523Z,1013.80
2018-06-03T11:21:24.518Z,1013.80
2018-06-03T11:22:24.515Z,1013.79
2018-06-03T11:23:24.512Z,1013.73
2018-06-03T11:24:24.517Z,1013.74
2018-06-03T11:25:24.507Z,1013.73
2018-06-03T11:26:24.504Z,1013.74
2018-06-03T11:27:24.535Z,1013.71
2018-06-03T11:28:24.498Z,1013.75
2018-06-03T11:29:24.499Z,1013.74
2018-06-03T11:30:24.495Z,1013.72
2018-06-03T11:31:24.495Z,1013.70
2018-06-03T11:32:24.490Z,1013.68
2018-06-03T11:33:24.488Z,1013.64
2018-06-03T11:34:24.490Z,1013.65
2018-06-03T11:35:24.485Z,1013.66
2018-06-03T11:36:24.484Z,1013.63
2018-06-03T11:37:24.484Z,1013.69
2018-06-03T11:38:24.479Z,1013.75
2018-06-03T11:39:24.479Z,1013.69
2018-06-03T11:40:24.479Z,1013.65
2018-06-03T11:41:24.484Z,1013.66
2018-06-03T11:42:24.473Z,1013.59
2018-06-03T11:43:24.472Z,1013.61
2018-06-03T11:44:24.474Z,1013.58
2018-06-03T11:45:24.506Z,1013.57
2018-06-03T11:46:24.477Z,1013.33
2018-06-03T11:47:24.521Z,1013.59
2018-06-03T11:48:24.555Z,1013.18
2018-06-03T11:49:24.465Z,1013.55
2018-06-03T11:50:25.081Z,1013.64
2018-06-03T11:51:24.465Z,1013.31
2018-06-03T11:52:24.496Z,1012.94
2018-06-03T11:53:24.460Z,1013.00
2018-06-03T11:54:24.482Z,1013.08
2018-06-03T11:55:24.468Z,1013.03
2018-06-03T11:56:24.477Z,1013.13
2018-06-03T11:57:24.490Z,1012.95
2018-06-03T11:58:24.481Z,1012.92
2018-06-03T11:59:24.467Z,1012.95
2018-06-03T12:00:24.464Z,1013.50
2018-06-03T12:01:24.460Z,1013.55
2018-06-03T12:02:24.449Z,1013.55
2018-06-03T12:03:24.445Z,1013.47
2018-06-03T12:04:24.451Z,1013.41
2018-06-03T12:05:24.433Z,1013.51
2018-06-03T12:06:24.424Z,1013.47